KTIX/TIX METAR and TAF weather

Enter ICAO airport designator
Station Type Date Time Source
KTIX METAR 2021/10/20 00:47 UTC NOAA

KTIX 200047Z 08004KT 7SM CLR 26/16 A3019


Station Type Date Time Source
KTIX Decoded METAR 2021/10/20 00:47 UTC NOAA

Titusville, FL, United States (KTIX) 28-31N 080-48W
Oct 19, 2021 - 08:47 PM EDT / 2021.10.20 0047 UTC
Wind: from the E (080 degrees) at 5 MPH (4 KT):0
Visibility: 7 mile(s):0
Sky conditions: clear
Temperature: 78 F (26 C)
Dew Point: 60 F (16 C)
Relative Humidity: 54%
Pressure (altimeter): 30.19 in. Hg (1022 hPa)
ob: KTIX 200047Z 08004KT 7SM CLR 26/16 A3019
cycle: 1

Station Type Date Time Source
KTIX TAF 2021/10/20 06:24 UTC NOAA

TAF KTIX 200522Z 2006/2106 07005KT P6SM FEW050
FM201500 08010KT P6SM FEW045 SCT250
FM210100 09006KT P6SM SCT050
AMD NOT SKED TIL 201100

Example: see airport list